Time;durP1;ratioP1;P1;durP2;ratioP2;P2;SDS_P1;SDS_P2;PMS_P1;PMS_P2;Temp;Humidity;BMP_temperature;BMP_pressure;BME280_temperature;BME280_humidity;BME280_pressure;Samples;Min_cycle;Max_cycle;Signal;HPM_P1;HPM_P2
2022/04/13 00:02:20;;;;;;;21.88;11.48;;;;;;;14.88;57.33;101004.88;5093860;28;20081;-55
2022/04/13 00:04:45;;;;;;;21.30;10.77;;;;;;;14.87;57.35;101010.78;5093952;28;20477;-56
2022/04/13 00:07:11;;;;;;;23.33;11.73;;;;;;;14.83;56.93;101005.06;5093922;28;20438;-56
2022/04/13 00:09:36;;;;;;;21.30;11.55;;;;;;;14.79;57.55;101015.22;5090160;28;20029;-58
2022/04/13 00:12:03;;;;;;;21.35;11.93;;;;;;;14.72;57.93;101015.75;5084860;28;20094;-57
2022/04/13 00:14:29;;;;;;;22.17;11.60;;;;;;;14.66;58.34;101011.47;5089997;28;20090;-56
2022/04/13 00:16:54;;;;;;;19.30;11.45;;;;;;;14.58;58.15;101009.50;5087640;28;20441;-59
2022/04/13 00:19:21;;;;;;;21.52;12.27;;;;;;;14.50;58.81;101008.34;5073219;28;20028;-58
2022/04/13 00:21:47;;;;;;;20.33;11.50;;;;;;;14.43;58.79;101008.88;5055508;28;20496;-57
2022/04/13 00:24:13;;;;;;;21.92;11.80;;;;;;;14.39;59.14;101002.31;5075431;28;20111;-55
2022/04/13 00:26:39;;;;;;;20.05;11.63;;;;;;;14.33;59.37;101010.00;5093079;28;20465;-60
2022/04/13 00:29:04;;;;;;;20.33;11.73;;;;;;;14.32;59.21;101013.13;5093345;28;20032;-58
2022/04/13 00:31:30;;;;;;;21.10;11.90;;;;;;;14.31;59.11;101017.06;5093348;28;20076;-57
2022/04/13 00:33:55;;;;;;;22.05;11.45;;;;;;;14.28;59.33;101012.97;5093407;28;20043;-57
2022/04/13 00:36:20;;;;;;;22.83;11.65;;;;;;;14.26;59.81;101029.19;5093580;28;20024;-55
2022/04/13 00:38:46;;;;;;;22.73;11.52;;;;;;;14.26;59.50;101023.59;5093215;28;20024;-55
2022/04/13 00:41:12;;;;;;;22.25;11.65;;;;;;;14.27;59.55;101028.03;5093150;28;20043;-57
2022/04/13 00:43:37;;;;;;;20.23;11.20;;;;;;;14.23;59.56;101027.03;5093184;28;20032;-56
2022/04/13 00:46:02;;;;;;;20.05;11.75;;;;;;;14.20;59.96;101027.72;5093325;28;20024;-54
2022/04/13 00:48:31;;;;;;;20.98;11.43;;;;;;;14.17;59.81;101029.16;5084402;28;20028;-55
2022/04/13 00:50:56;;;;;;;20.65;10.98;;;;;;;14.16;60.06;101037.84;5093684;28;20456;-56
2022/04/13 00:53:24;;;;;;;22.17;11.30;;;;;;;14.14;60.07;101038.16;5073029;28;20032;-56
2022/04/13 00:55:53;;;;;;;21.25;10.75;;;;;;;14.13;60.12;101046.81;5086127;28;20093;-57
2022/04/13 00:58:22;;;;;;;22.27;11.20;;;;;;;14.10;60.42;101045.53;5091801;28;20040;-57
2022/04/13 01:00:49;;;;;;;22.30;11.50;;;;;;;14.07;60.44;101048.13;5091526;28;20032;-56
2022/04/13 01:03:17;;;;;;;20.88;10.60;;;;;;;14.04;60.52;101052.41;5092141;28;20067;-56
2022/04/13 01:05:45;;;;;;;20.65;11.23;;;;;;;14.01;60.85;101055.81;5087177;28;20037;-55
2022/04/13 01:08:12;;;;;;;18.90;10.80;;;;;;;13.97;61.00;101058.44;5092501;28;20067;-55
2022/04/13 01:10:40;;;;;;;21.77;10.50;;;;;;;13.94;61.10;101061.84;5093033;28;20035;-59
2022/04/13 01:13:05;;;;;;;19.50;10.55;;;;;;;13.91;60.91;101056.97;5092317;28;20392;-55
2022/04/13 01:15:30;;;;;;;21.65;10.75;;;;;;;13.88;61.52;101066.78;5074506;28;20028;-56
2022/04/13 01:17:56;;;;;;;20.70;11.02;;;;;;;13.85;61.49;101069.34;5089771;28;20024;-56
2022/04/13 01:20:23;;;;;;;20.05;11.05;;;;;;;13.87;61.60;101078.19;5092409;28;20031;-55
2022/04/13 01:22:49;;;;;;;20.33;10.65;;;;;;;13.84;61.52;101078.84;5092186;28;20034;-56
2022/04/13 01:25:14;;;;;;;19.40;11.00;;;;;;;13.83;61.65;101083.59;5092578;28;20020;-56
2022/04/13 01:27:39;;;;;;;21.35;10.85;;;;;;;13.83;61.98;101082.78;5091046;28;20046;-55
2022/04/13 01:30:07;;;;;;;18.27;10.57;;;;;;;13.81;61.92;101097.00;5092422;28;20054;-56
2022/04/13 01:32:32;;;;;;;19.83;11.00;;;;;;;13.83;62.42;101093.91;5091560;28;20024;-55
2022/04/13 01:34:57;;;;;;;22.15;11.63;;;;;;;13.85;62.20;101102.72;5092209;28;20024;-54
2022/04/13 01:37:23;;;;;;;21.63;11.48;;;;;;;13.84;62.24;101106.63;5092014;28;20486;-56
2022/04/13 01:39:48;;;;;;;21.85;11.27;;;;;;;13.84;62.19;101098.28;5092366;28;20020;-55
2022/04/13 01:42:13;;;;;;;21.85;11.63;;;;;;;13.83;62.50;101110.59;5092256;28;20032;-55
2022/04/13 01:44:41;;;;;;;21.65;11.77;;;;;;;13.82;62.55;101115.31;5092235;28;20058;-56
2022/04/13 01:47:07;;;;;;;23.23;11.43;;;;;;;13.78;63.02;101117.13;5092497;28;20028;-56
2022/04/13 01:49:32;;;;;;;22.10;12.30;;;;;;;13.76;63.08;101115.78;5089033;28;20040;-56
2022/04/13 01:51:57;;;;;;;22.60;11.82;;;;;;;13.75;63.12;101120.53;5085995;28;20034;-56
2022/04/13 01:54:22;;;;;;;22.60;12.90;;;;;;;13.71;63.58;101122.28;5090498;28;20032;-56
2022/04/13 01:56:48;;;;;;;22.67;12.68;;;;;;;13.72;63.74;101123.94;5092529;28;20028;-56
2022/04/13 01:59:13;;;;;;;22.85;12.35;;;;;;;13.72;63.87;101135.06;5092416;28;20103;-56
2022/04/13 02:01:43;;;;;;;22.58;12.90;;;;;;;13.69;63.99;101124.59;5091994;28;20028;-56
2022/04/13 02:04:19;;;;;;;22.40;12.90;;;;;;;13.67;63.73;101122.13;5092385;28;20024;-56
2022/04/13 02:06:45;;;;;;;22.30;12.88;;;;;;;13.63;64.35;101123.91;5085549;28;20072;-54
2022/04/13 02:09:11;;;;;;;21.25;13.05;;;;;;;13.60;64.56;101132.09;5090268;28;20515;-57
2022/04/13 02:11:36;;;;;;;21.92;12.95;;;;;;;13.60;64.70;101123.75;5096451;28;20024;-55
2022/04/13 02:14:01;;;;;;;22.92;13.20;;;;;;;13.57;64.38;101126.03;5088417;28;20158;-55
2022/04/13 02:16:27;;;;;;;22.85;12.88;;;;;;;13.54;64.97;101123.06;5095460;28;20027;-56
2022/04/13 02:18:52;;;;;;;21.25;13.45;;;;;;;13.52;65.41;101142.00;5095458;28;20020;-55
2022/04/13 02:21:17;;;;;;;22.58;12.95;;;;;;;13.48;65.40;101136.28;5095886;28;20032;-55
2022/04/13 02:23:43;;;;;;;21.65;12.52;;;;;;;13.48;65.32;101141.00;5093531;28;20020;-55
2022/04/13 02:26:08;;;;;;;23.67;13.43;;;;;;;13.45;65.71;101136.91;5129819;22;20043;-57
2022/04/13 02:28:33;;;;;;;22.35;13.30;;;;;;;13.46;66.00;101149.66;5126011;27;20038;-56
2022/04/13 02:30:59;;;;;;;22.00;13.25;;;;;;;13.45;65.78;101147.22;5115175;28;20024;-57
2022/04/13 02:33:25;;;;;;;25.33;13.65;;;;;;;13.41;66.38;101147.84;5131590;27;20415;-58
2022/04/13 02:35:50;;;;;;;24.70;13.75;;;;;;;13.37;66.59;101149.56;5135693;27;20451;-59
2022/04/13 02:38:16;;;;;;;22.45;13.75;;;;;;;13.35;66.89;101148.25;5135340;27;20070;-57
2022/04/13 02:40:42;;;;;;;23.92;13.18;;;;;;;13.31;67.32;101153.63;5135929;27;20114;-55
2022/04/13 02:43:08;;;;;;;22.08;13.25;;;;;;;13.26;67.51;101151.81;5135867;27;20069;-58
2022/04/13 02:45:34;;;;;;;24.25;13.63;;;;;;;13.23;67.60;101159.94;5135856;27;20102;-57
2022/04/13 02:48:00;;;;;;;22.63;13.75;;;;;;;13.21;68.07;101154.72;5135388;27;20433;-58
2022/04/13 02:50:25;;;;;;;23.60;14.55;;;;;;;13.20;68.21;101163.34;5135589;27;20490;-58
2022/04/13 02:52:54;;;;;;;21.95;13.73;;;;;;;13.19;68.44;101168.09;5133231;27;20023;-58
2022/04/13 02:55:19;;;;;;;21.15;13.80;;;;;;;13.19;68.27;101167.25;5131925;27;20118;-56
2022/04/13 02:57:45;;;;;;;23.38;13.45;;;;;;;13.14;68.79;101168.22;5133599;27;20087;-57
2022/04/13 03:00:10;;;;;;;24.17;13.52;;;;;;;13.14;69.06;101167.41;5131894;27;20412;-58
2022/04/13 03:02:39;;;;;;;24.92;13.93;;;;;;;13.08;69.20;101169.47;5129886;27;20019;-57
2022/04/13 03:05:05;;;;;;;22.35;13.75;;;;;;;13.08;69.42;101175.03;5114556;28;20365;-56
2022/04/13 03:07:32;;;;;;;25.02;13.93;;;;;;;13.04;69.54;101174.00;5129713;27;20100;-56
2022/04/13 03:09:58;;;;;;;23.48;13.85;;;;;;;12.97;69.59;101173.63;5135187;27;20034;-57
2022/04/13 03:12:23;;;;;;;23.30;13.95;;;;;;;12.93;70.26;101177.06;5131580;27;20024;-56
2022/04/13 03:14:48;;;;;;;23.58;13.85;;;;;;;12.88;70.17;101182.72;5127472;27;20050;-58
2022/04/13 03:17:14;;;;;;;23.42;13.93;;;;;;;12.83;70.64;101176.47;5134706;27;20106;-57
2022/04/13 03:19:39;;;;;;;24.38;13.80;;;;;;;12.75;71.01;101175.28;5134088;27;20027;-57
2022/04/13 03:22:04;;;;;;;23.10;13.88;;;;;;;12.73;70.86;101178.34;5134121;27;20031;-57
2022/04/13 03:24:29;;;;;;;22.48;14.13;;;;;;;12.66;71.25;101171.59;5122969;27;20160;-57
2022/04/13 03:26:55;;;;;;;22.15;13.95;;;;;;;12.57;71.83;101175.09;5118984;27;20070;-62
2022/04/13 03:29:21;;;;;;;23.13;14.23;;;;;;;12.51;72.08;101175.53;5126567;27;20043;-56
2022/04/13 03:31:46;;;;;;;21.70;13.48;;;;;;;12.44;72.09;101173.97;5104500;27;20077;-58
2022/04/13 03:34:11;;;;;;;21.83;13.82;;;;;;;12.37;72.51;101170.81;5121790;27;20031;-59
2022/04/13 03:36:39;;;;;;;22.40;14.07;;;;;;;12.32;72.82;101176.50;5123376;27;20167;-57
2022/04/13 03:39:08;;;;;;;23.80;14.32;;;;;;;12.23;73.18;101172.81;5135455;27;20104;-56
2022/04/13 03:41:37;;;;;;;24.42;15.23;;;;;;;12.20;73.30;101176.19;5133782;27;20023;-55
2022/04/13 03:44:03;;;;;;;22.33;14.30;;;;;;;12.11;73.39;101174.13;5114771;28;20036;-57
2022/04/13 03:46:28;;;;;;;24.10;14.50;;;;;;;12.05;73.61;101174.53;5114155;28;20027;-58
2022/04/13 03:48:54;;;;;;;24.80;14.85;;;;;;;11.93;74.19;101175.84;5113647;28;20118;-58
2022/04/13 03:51:19;;;;;;;23.15;14.57;;;;;;;11.90;74.45;101179.25;5113928;28;20061;-59
2022/04/13 03:53:44;;;;;;;23.90;14.93;;;;;;;11.84;74.33;101186.00;5113766;28;20024;-59
2022/04/13 03:56:10;;;;;;;23.15;14.82;;;;;;;11.76;74.65;101176.44;5113679;28;20484;-57
2022/04/13 03:58:35;;;;;;;23.55;15.15;;;;;;;11.70;74.98;101192.34;5095267;28;20042;-58
2022/04/13 04:01:00;;;;;;;22.08;14.10;;;;;;;11.67;75.36;101189.34;5117804;27;20020;-56
2022/04/13 04:03:25;;;;;;;24.55;14.43;;;;;;;11.63;74.89;101196.66;5132795;27;20023;-57
2022/04/13 04:05:51;;;;;;;24.02;14.52;;;;;;;11.63;75.37;101199.41;5129175;27;20027;-58
2022/04/13 04:08:16;;;;;;;24.08;14.35;;;;;;;11.54;75.62;101196.50;5109962;27;20482;-57
2022/04/13 04:10:41;;;;;;;25.00;14.15;;;;;;;11.50;75.46;101198.25;5112113;27;20026;-55
2022/04/13 04:13:06;;;;;;;22.88;14.57;;;;;;;11.48;75.77;101198.53;5128739;27;20058;-56
2022/04/13 04:15:32;;;;;;;24.17;14.13;;;;;;;11.43;75.47;101195.06;5121476;27;21843;-57
2022/04/13 04:17:57;;;;;;;23.17;14.60;;;;;;;11.35;76.21;101200.16;5118483;27;20034;-56
2022/04/13 04:20:22;;;;;;;25.70;14.45;;;;;;;11.37;76.04;101210.94;5133664;27;20467;-57
2022/04/13 04:22:48;;;;;;;24.13;14.65;;;;;;;11.33;76.03;101213.50;5114364;27;20466;-57
2022/04/13 04:25:13;;;;;;;25.77;14.52;;;;;;;11.31;76.73;101223.22;5114786;27;20027;-56
2022/04/13 04:27:38;;;;;;;24.65;15.25;;;;;;;11.18;76.63;101210.97;5127958;27;20332;-56
2022/04/13 04:30:04;;;;;;;22.40;14.98;;;;;;;11.21;77.00;101224.22;5112554;28;20031;-56
2022/04/13 04:32:30;;;;;;;24.48;15.27;;;;;;;11.17;77.01;101225.94;5117300;27;20102;-56
2022/04/13 04:34:55;;;;;;;24.65;15.43;;;;;;;11.12;77.14;101226.84;5120186;27;20735;-56
2022/04/13 04:37:21;;;;;;;25.15;15.20;;;;;;;11.11;77.25;101227.94;5123662;27;20045;-56
2022/04/13 04:39:46;;;;;;;24.88;14.90;;;;;;;11.05;77.50;101231.94;5123080;27;20019;-56
2022/04/13 04:42:11;;;;;;;24.00;15.07;;;;;;;11.05;77.87;101240.22;5116309;27;20027;-57
2022/04/13 04:44:36;;;;;;;24.95;16.17;;;;;;;11.01;77.97;101242.78;5106303;28;20432;-57
2022/04/13 04:47:03;;;;;;;23.70;16.48;;;;;;;10.96;78.57;101240.06;5110917;27;20024;-56
2022/04/13 04:49:28;;;;;;;27.80;16.08;;;;;;;10.95;78.60;101238.47;5128317;27;20039;-57
2022/04/13 04:51:53;;;;;;;24.75;16.40;;;;;;;10.92;78.96;101242.63;5128454;27;20448;-55
2022/04/13 04:54:18;;;;;;;24.92;17.42;;;;;;;10.89;79.36;101247.94;5133554;27;20038;-55
2022/04/13 04:56:44;;;;;;;27.77;18.23;;;;;;;10.90;79.44;101252.34;5133168;27;20471;-56
2022/04/13 04:59:09;;;;;;;26.13;18.38;;;;;;;10.95;79.42;101257.00;5112924;28;20106;-55
2022/04/13 05:01:34;;;;;;;26.95;17.33;;;;;;;10.92;79.25;101250.94;5112347;28;20054;-57
2022/04/13 05:03:59;;;;;;;25.65;17.58;;;;;;;10.98;79.34;101259.19;5125702;27;20016;-55
2022/04/13 05:06:28;;;;;;;27.13;17.58;;;;;;;10.99;79.61;101269.94;5114349;27;20039;-57
2022/04/13 05:08:55;;;;;;;25.35;16.83;;;;;;;10.99;79.67;101269.13;5104661;28;20352;-56
2022/04/13 05:11:21;;;;;;;23.95;17.98;;;;;;;11.04;79.60;101283.72;5107397;28;20031;-56
2022/04/13 05:13:46;;;;;;;25.23;17.38;;;;;;;11.04;80.39;101275.41;5091925;28;20048;-57
2022/04/13 05:16:13;;;;;;;26.92;17.90;;;;;;;11.06;80.16;101287.00;5105253;28;20054;-57
2022/04/13 05:18:39;;;;;;;28.92;17.73;;;;;;;11.07;80.36;101283.09;5097759;28;20358;-57
2022/04/13 05:21:04;;;;;;;26.73;17.38;;;;;;;11.10;80.57;101286.41;5099825;28;20024;-57
2022/04/13 05:23:30;;;;;;;28.27;17.55;;;;;;;11.13;80.22;101294.13;5096618;28;20456;-55
2022/04/13 05:25:55;;;;;;;25.83;17.25;;;;;;;11.18;80.29;101292.09;5099413;28;20462;-57
2022/04/13 05:28:20;;;;;;;26.17;17.23;;;;;;;11.28;79.81;101293.09;5112224;28;20020;-56
2022/04/13 05:30:45;;;;;;;27.63;16.98;;;;;;;11.35;79.71;101296.28;5112039;28;20524;-55
2022/04/13 05:33:12;;;;;;;26.02;17.02;;;;;;;11.37;79.74;101300.41;5082525;28;20177;-56
2022/04/13 05:35:37;;;;;;;28.80;17.95;;;;;;;11.47;79.37;101298.59;5104273;28;20030;-54
2022/04/13 05:38:05;;;;;;;26.55;17.75;;;;;;;11.58;78.91;101296.47;5099786;28;20111;-57
2022/04/13 05:40:30;;;;;;;27.92;17.45;;;;;;;11.63;79.50;101302.75;5100004;28;20035;-56
2022/04/13 05:42:56;;;;;;;27.98;18.08;;;;;;;11.77;79.51;101307.53;5103692;28;20031;-56
2022/04/13 05:45:21;;;;;;;26.63;18.05;;;;;;;11.86;78.59;101308.50;5103816;28;20028;-56
2022/04/13 05:47:47;;;;;;;24.65;17.45;;;;;;;11.99;78.22;101312.47;5102519;28;20035;-57
2022/04/13 05:50:13;;;;;;;28.17;17.83;;;;;;;12.08;78.27;101318.13;5103319;28;20039;-56
2022/04/13 05:52:40;;;;;;;25.23;17.02;;;;;;;12.19;77.69;101321.53;5102118;28;20073;-54
2022/04/13 05:55:07;;;;;;;29.02;18.70;;;;;;;12.23;77.46;101323.41;5105129;28;20046;-56
2022/04/13 05:57:32;;;;;;;26.73;17.95;;;;;;;12.30;77.48;101323.81;5108286;28;20097;-54
2022/04/13 05:59:57;;;;;;;27.95;18.13;;;;;;;12.33;77.39;101325.97;5108599;28;20031;-55
2022/04/13 06:02:23;;;;;;;27.55;19.00;;;;;;;12.41;77.04;101332.78;5109510;28;20031;-55
2022/04/13 06:04:48;;;;;;;29.38;18.85;;;;;;;12.44;76.96;101328.56;5114835;28;20121;-57
2022/04/13 06:07:14;;;;;;;27.23;18.65;;;;;;;12.48;77.41;101335.13;5115009;28;20376;-56
2022/04/13 06:09:39;;;;;;;30.77;19.45;;;;;;;12.58;76.74;101337.72;5105502;28;20117;-56
2022/04/13 06:12:05;;;;;;;27.42;19.05;;;;;;;12.64;76.84;101335.66;5108046;28;20116;-57
2022/04/13 06:14:30;;;;;;;27.27;19.27;;;;;;;12.76;76.33;101344.28;5115751;28;20031;-56
2022/04/13 06:16:55;;;;;;;31.35;19.27;;;;;;;12.86;76.33;101348.00;5081574;28;20047;-56
2022/04/13 06:19:21;;;;;;;31.38;20.23;;;;;;;12.94;76.21;101350.03;5106805;28;20479;-57
2022/04/13 06:21:46;;;;;;;31.65;20.58;;;;;;;13.01;75.93;101350.44;5096188;28;20023;-57
2022/04/13 06:24:11;;;;;;;31.60;20.60;;;;;;;13.07;76.15;101362.25;5111897;28;20023;-57
2022/04/13 06:26:37;;;;;;;30.13;19.95;;;;;;;13.14;75.97;101357.09;5115104;28;20062;-56
2022/04/13 06:29:02;;;;;;;28.90;20.33;;;;;;;13.22;75.50;101366.66;5105959;28;20114;-57
2022/04/13 06:31:27;;;;;;;29.33;20.80;;;;;;;13.27;75.38;101363.78;5095289;28;20082;-57
2022/04/13 06:33:53;;;;;;;34.40;21.48;;;;;;;13.31;75.33;101364.78;5095154;28;20047;-56
2022/04/13 06:36:18;;;;;;;31.77;20.38;;;;;;;13.36;75.40;101367.47;5094920;28;20318;-56
2022/04/13 06:38:44;;;;;;;27.17;19.10;;;;;;;13.43;74.98;101361.50;5095326;28;20028;-57
2022/04/13 06:41:10;;;;;;;29.33;20.17;;;;;;;13.46;75.01;101360.06;5095052;28;20340;-56
2022/04/13 06:43:36;;;;;;;29.98;21.10;;;;;;;13.51;74.88;101359.94;5095123;28;20028;-58
2022/04/13 06:46:01;;;;;;;28.83;20.40;;;;;;;13.57;74.79;101367.84;5094946;28;20055;-57
2022/04/13 06:48:27;;;;;;;28.50;20.25;;;;;;;13.67;74.60;101369.56;5095274;28;20071;-59
2022/04/13 06:50:52;;;;;;;29.45;19.73;;;;;;;13.71;74.39;101372.53;5102914;28;20031;-56
2022/04/13 06:53:18;;;;;;;29.60;20.52;;;;;;;13.75;74.36;101373.56;5107832;28;20436;-57
2022/04/13 06:55:44;;;;;;;30.92;20.85;;;;;;;13.77;74.73;101381.56;5096696;28;20028;-57
2022/04/13 06:58:10;;;;;;;31.77;21.48;;;;;;;13.80;74.26;101386.50;5114757;28;20038;-57
2022/04/13 07:00:35;;;;;;;30.63;21.23;;;;;;;13.81;74.42;101394.53;5094369;28;20024;-54
2022/04/13 07:03:01;;;;;;;29.70;21.35;;;;;;;13.81;74.51;101397.31;5094525;28;20027;-56
2022/04/13 07:05:28;;;;;;;31.92;22.02;;;;;;;13.84;74.88;101409.75;5094310;28;20028;-54
2022/04/13 07:07:56;;;;;;;31.55;21.40;;;;;;;13.88;74.37;101405.22;5094121;28;20456;-58
2022/04/13 07:10:22;;;;;;;31.35;22.38;;;;;;;13.97;74.06;101419.22;5094811;28;20152;-56
2022/04/13 07:12:47;;;;;;;30.65;22.30;;;;;;;14.02;73.86;101411.56;5094391;28;20416;-55
2022/04/13 07:15:16;;;;;;;30.08;21.80;;;;;;;14.11;73.64;101416.38;5093837;28;20051;-56
2022/04/13 07:17:42;;;;;;;33.20;22.60;;;;;;;14.13;73.70;101414.91;5094294;28;20032;-57
2022/04/13 07:20:08;;;;;;;33.25;23.30;;;;;;;14.13;73.52;101409.34;5093881;28;20028;-53
2022/04/13 07:22:42;;;;;;;31.58;22.98;;;;;;;14.20;73.51;101417.25;5094352;28;20094;-56
2022/04/13 07:25:07;;;;;;;29.73;21.98;;;;;;;14.23;73.21;101426.91;5093763;28;20039;-56
2022/04/13 07:27:32;;;;;;;33.90;23.65;;;;;;;14.18;73.20;101437.03;5093775;28;20024;-59
2022/04/13 07:29:58;;;;;;;33.15;23.05;;;;;;;14.17;73.52;101445.69;5094006;28;20032;-58
2022/04/13 07:32:23;;;;;;;30.65;23.23;;;;;;;14.16;73.59;101449.63;5093691;28;20024;-56
2022/04/13 07:34:48;;;;;;;34.90;24.38;;;;;;;14.20;73.74;101453.44;5093613;28;20085;-56
2022/04/13 07:37:13;;;;;;;32.33;24.20;;;;;;;14.22;73.59;101459.47;5093800;28;20515;-57
2022/04/13 07:39:39;;;;;;;32.80;23.50;;;;;;;14.19;73.74;101455.38;5093789;28;20111;-57
2022/04/13 07:42:04;;;;;;;32.72;23.88;;;;;;;14.22;73.73;101453.91;5093540;28;20038;-54
2022/04/13 07:44:29;;;;;;;31.73;23.80;;;;;;;14.26;73.79;101459.69;5093279;28;20107;-56
2022/04/13 07:46:56;;;;;;;34.10;24.65;;;;;;;14.34;73.44;101451.38;5093460;28;20475;-56
2022/04/13 07:49:21;;;;;;;32.33;22.85;;;;;;;14.45;73.17;101457.50;5093526;28;20134;-56
2022/04/13 07:51:47;;;;;;;33.55;23.08;;;;;;;14.54;72.82;101453.97;5093672;28;20448;-50
2022/04/13 07:54:12;;;;;;;34.00;23.92;;;;;;;14.61;72.96;101457.94;5075115;28;20028;-56
2022/04/13 07:56:37;;;;;;;33.95;22.63;;;;;;;14.66;72.18;101456.97;5093232;28;20530;-56
2022/04/13 07:59:03;;;;;;;31.48;23.15;;;;;;;14.68;72.04;101454.72;5093344;28;20024;-57
2022/04/13 08:01:29;;;;;;;32.00;22.77;;;;;;;14.71;72.46;101461.63;5093163;28;20028;-57
2022/04/13 08:03:54;;;;;;;29.15;23.42;;;;;;;14.74;72.41;101463.78;5099425;28;20116;-57
2022/04/13 08:06:19;;;;;;;31.10;22.13;;;;;;;14.81;71.82;101464.97;5110481;28;20489;-56
2022/04/13 08:08:44;;;;;;;29.08;21.95;;;;;;;14.79;71.40;101464.47;5113343;28;20032;-57
2022/04/13 08:11:10;;;;;;;31.00;22.30;;;;;;;14.85;71.70;101462.38;5113872;28;20019;-56
2022/04/13 08:13:35;;;;;;;29.67;21.95;;;;;;;14.96;71.40;101469.31;5106910;28;20022;-56
2022/04/13 08:16:00;;;;;;;31.25;21.85;;;;;;;15.06;70.64;101470.97;5093602;28;20036;-57
2022/04/13 08:18:25;;;;;;;31.77;21.65;;;;;;;15.08;71.28;101479.84;5092430;28;20445;-57
2022/04/13 08:20:51;;;;;;;29.92;22.52;;;;;;;15.11;70.90;101476.38;5091649;28;20077;-58
2022/04/13 08:23:16;;;;;;;30.08;20.92;;;;;;;15.19;70.18;101485.94;5074451;28;20035;-58
2022/04/13 08:25:42;;;;;;;27.45;19.27;;;;;;;15.24;69.64;101479.41;5090603;28;20051;-56
2022/04/13 08:28:07;;;;;;;28.50;19.63;;;;;;;15.26;69.46;101482.69;5092756;28;20031;-58
2022/04/13 08:30:33;;;;;;;31.23;22.02;;;;;;;15.25;69.73;101481.03;5092800;28;20024;-58
2022/04/13 08:32:58;;;;;;;27.27;19.67;;;;;;;15.32;69.09;101480.56;5092683;28;20036;-58
2022/04/13 08:35:24;;;;;;;25.85;17.48;;;;;;;15.38;68.44;101484.84;5092668;28;20024;-58
2022/04/13 08:37:49;;;;;;;28.60;18.20;;;;;;;15.40;68.24;101485.34;5090833;28;20027;-56
2022/04/13 08:40:16;;;;;;;28.08;17.88;;;;;;;15.31;68.74;101488.09;5073448;28;20020;-58
2022/04/13 08:42:50;;;;;;;29.20;18.30;;;;;;;15.27;68.90;101498.28;5092189;28;20478;-58
2022/04/13 08:45:21;;;;;;;28.25;19.58;;;;;;;15.18;69.37;101486.25;5092461;28;20133;-58
2022/04/13 08:47:47;;;;;;;27.40;18.23;;;;;;;15.25;68.89;101493.03;5092130;28;20026;-59
2022/04/13 08:50:13;;;;;;;25.60;18.13;;;;;;;15.28;69.09;101492.34;5092272;28;20028;-58
2022/04/13 08:52:39;;;;;;;26.25;17.92;;;;;;;15.37;68.74;101489.63;5092489;28;20039;-59
2022/04/13 08:55:11;;;;;;;27.35;17.75;;;;;;;15.47;68.67;101502.41;5074713;28;20039;-58
2022/04/13 08:57:39;;;;;;;27.13;17.50;;;;;;;15.56;68.62;101506.06;5092781;28;20066;-57
2022/04/13 09:00:13;;;;;;;27.45;17.60;;;;;;;15.65;68.44;101513.63;5092424;28;20034;-57
2022/04/13 09:02:47;;;;;;;26.30;18.08;;;;;;;15.77;67.77;101511.03;5092449;28;20032;-57
2022/04/13 09:05:32;;;;;;;28.13;19.42;;;;;;;15.84;67.42;101496.63;5092080;28;20038;-57
2022/04/13 09:08:23;;;;;;;27.23;19.25;;;;;;;16.06;67.89;101518.00;5092641;28;20475;-57
2022/04/13 09:10:53;;;;;;;26.30;17.50;;;;;;;16.28;66.69;101519.00;5091990;28;20104;-58
2022/04/13 09:13:24;;;;;;;26.23;18.00;;;;;;;16.46;66.24;101514.19;5092154;28;20023;-57
2022/04/13 09:15:50;;;;;;;27.85;19.00;;;;;;;16.55;65.68;101512.22;5092073;28;20549;-58
2022/04/13 09:18:15;;;;;;;26.38;17.75;;;;;;;16.76;64.81;101509.56;5091813;28;20046;-57
2022/04/13 09:20:41;;;;;;;26.08;17.35;;;;;;;16.91;63.85;101510.97;5091734;28;20477;-58
2022/04/13 09:23:07;;;;;;;26.60;18.15;;;;;;;17.04;63.32;101520.38;5073587;28;20056;-58
2022/04/13 09:25:34;;;;;;;25.33;18.38;;;;;;;17.16;63.88;101514.06;5091528;28;20047;-58
2022/04/13 09:28:01;;;;;;;26.23;18.50;;;;;;;17.27;63.39;101514.50;5091799;28;20028;-57
2022/04/13 09:30:28;;;;;;;25.70;18.30;;;;;;;17.30;62.45;101534.22;5091876;28;20077;-58
2022/04/13 09:32:54;;;;;;;25.13;18.08;;;;;;;17.33;62.50;101531.91;5091887;28;20093;-57
2022/04/13 09:35:20;;;;;;;24.52;16.33;;;;;;;17.24;62.14;101529.97;5073537;28;20028;-58
2022/04/13 09:37:46;;;;;;;25.73;16.83;;;;;;;17.25;62.61;101534.41;5091728;28;20088;-57
2022/04/13 09:40:33;;;;;;;26.55;17.38;;;;;;;17.28;63.07;101532.91;5091744;28;20528;-57
2022/04/13 09:43:07;;;;;;;26.70;18.50;;;;;;;17.15;63.21;101534.78;5091848;28;20032;-58
2022/04/13 09:45:35;;;;;;;27.25;18.52;;;;;;;17.21;64.00;101539.03;5091820;28;20032;-58
2022/04/13 09:48:04;;;;;;;25.95;18.38;;;;;;;17.19;63.68;101530.19;5091488;28;20054;-58
2022/04/13 09:50:29;;;;;;;26.88;19.00;;;;;;;17.40;62.89;101543.38;5073573;28;20051;-57
2022/04/13 09:52:57;;;;;;;26.95;19.33;;;;;;;17.35;63.23;101540.78;5091660;28;20051;-57
2022/04/13 09:55:22;;;;;;;26.00;18.05;;;;;;;17.23;63.57;101542.31;5091649;28;20032;-58
2022/04/13 09:57:47;;;;;;;27.60;19.88;;;;;;;17.14;64.02;101553.50;5091512;28;20148;-58
2022/04/13 10:00:14;;;;;;;27.15;18.85;;;;;;;17.05;64.30;101549.94;5091450;28;20024;-57
2022/04/13 10:02:44;;;;;;;29.33;19.63;;;;;;;16.96;64.22;101546.34;5091469;28;20036;-56
2022/04/13 10:05:20;;;;;;;25.02;18.35;;;;;;;17.00;63.94;101550.13;5091526;28;20043;-57
2022/04/13 10:08:00;;;;;;;28.08;19.10;;;;;;;16.86;64.65;101547.50;5091299;28;20114;-57
2022/04/13 10:10:26;;;;;;;27.80;20.23;;;;;;;16.87;64.56;101551.09;5091272;28;20161;-57
2022/04/13 10:12:52;;;;;;;28.10;20.70;;;;;;;16.81;64.46;101551.28;5091204;28;20032;-58
2022/04/13 10:15:17;;;;;;;27.45;20.75;;;;;;;16.77;64.66;101557.88;5091472;28;20088;-58
2022/04/13 10:17:43;;;;;;;26.77;19.92;;;;;;;16.73;65.04;101559.66;5090952;28;20036;-58
2022/04/13 10:20:09;;;;;;;27.35;20.17;;;;;;;16.69;64.68;101556.72;5091184;28;20452;-57
2022/04/13 10:23:01;;;;;;;27.60;21.08;;;;;;;16.61;65.20;101557.56;5091038;28;20024;-58
2022/04/13 10:25:27;;;;;;;27.65;20.60;;;;;;;16.47;65.52;101550.19;5090761;28;20036;-58
2022/04/13 10:28:00;;;;;;;29.08;20.10;;;;;;;16.47;65.46;101557.72;5094487;28;20024;-58
2022/04/13 10:30:27;;;;;;;28.73;20.50;;;;;;;16.47;65.89;101561.34;5095191;28;20145;-58
2022/04/13 10:33:11;;;;;;;28.55;20.20;;;;;;;16.49;65.80;101561.03;5095218;28;20148;-58
2022/04/13 10:35:44;;;;;;;26.80;20.10;;;;;;;16.47;66.21;101563.31;5095204;28;20020;-58
2022/04/13 10:38:10;;;;;;;27.58;20.10;;;;;;;16.48;66.07;101564.97;5094939;28;20083;-58
2022/04/13 10:40:39;;;;;;;26.38;19.77;;;;;;;16.46;66.43;101565.31;5094777;28;20028;-59
2022/04/13 10:43:06;;;;;;;26.23;19.33;;;;;;;16.42;66.23;101569.06;5094593;28;20120;-58
2022/04/13 10:45:33;;;;;;;27.48;19.15;;;;;;;16.37;66.27;101558.91;5094721;28;20032;-57
2022/04/13 10:48:06;;;;;;;27.30;19.10;;;;;;;16.37;66.96;101568.06;5094906;28;20043;-57
2022/04/13 10:50:43;;;;;;;26.38;17.48;;;;;;;16.35;66.74;101569.56;5094719;28;20166;-58
2022/04/13 10:53:20;;;;;;;25.88;17.80;;;;;;;16.33;67.00;101583.03;5094731;28;20024;-57
2022/04/13 10:55:55;;;;;;;26.45;17.77;;;;;;;16.37;66.87;101590.41;5094726;28;20028;-57
2022/04/13 10:58:39;;;;;;;26.30;17.58;;;;;;;16.40;66.85;101582.53;5076705;28;20024;-58
2022/04/13 11:01:05;;;;;;;;;;;;;;;16.50;65.80;101576.63;5095301;28;20035;-57
2022/04/13 11:03:36;;;;;;;24.98;17.02;;;;;;;16.47;66.74;101583.69;5094980;28;19969;-58
2022/04/13 11:06:06;;;;;;;26.95;17.67;;;;;;;16.51;66.95;101589.44;5094594;28;20016;-56
2022/04/13 11:08:57;;;;;;;27.08;18.55;;;;;;;16.51;66.41;101584.66;5094906;28;20341;-57